sensor_id;sensor_type;location;lat;lon;timestamp;P1;durP1;ratioP1;P2;durP2;ratioP2
23432;SDS011;41331;45.412;10.992;2023-06-22T00:00:25;17.50;;;5.90;;
23432;SDS011;41331;45.412;10.992;2023-06-22T00:02:53;14.27;;;5.70;;
23432;SDS011;41331;45.412;10.992;2023-06-22T00:05:20;15.05;;;5.80;;
23432;SDS011;41331;45.412;10.992;2023-06-22T00:07:48;12.95;;;6.45;;
23432;SDS011;41331;45.412;10.992;2023-06-22T00:10:15;14.73;;;6.57;;
23432;SDS011;41331;45.412;10.992;2023-06-22T00:12:42;17.13;;;6.32;;
23432;SDS011;41331;45.412;10.992;2023-06-22T00:15:10;35.15;;;17.17;;
23432;SDS011;41331;45.412;10.992;2023-06-22T00:17:37;40.50;;;19.27;;
23432;SDS011;41331;45.412;10.992;2023-06-22T00:20:05;25.02;;;11.20;;
23432;SDS011;41331;45.412;10.992;2023-06-22T00:22:33;28.63;;;13.20;;
23432;SDS011;41331;45.412;10.992;2023-06-22T00:25:08;25.85;;;13.75;;
23432;SDS011;41331;45.412;10.992;2023-06-22T00:27:36;28.55;;;12.10;;
23432;SDS011;41331;45.412;10.992;2023-06-22T00:30:06;20.30;;;11.18;;
23432;SDS011;41331;45.412;10.992;2023-06-22T00:32:34;21.33;;;8.77;;
23432;SDS011;41331;45.412;10.992;2023-06-22T00:35:01;19.60;;;8.60;;
23432;SDS011;41331;45.412;10.992;2023-06-22T00:37:29;22.55;;;8.07;;
23432;SDS011;41331;45.412;10.992;2023-06-22T00:39:57;18.75;;;7.75;;
23432;SDS011;41331;45.412;10.992;2023-06-22T00:42:24;18.33;;;7.97;;
23432;SDS011;41331;45.412;10.992;2023-06-22T00:44:52;18.33;;;8.05;;
23432;SDS011;41331;45.412;10.992;2023-06-22T00:47:20;17.05;;;8.25;;
23432;SDS011;41331;45.412;10.992;2023-06-22T00:49:49;14.43;;;8.13;;
23432;SDS011;41331;45.412;10.992;2023-06-22T00:52:20;17.90;;;8.45;;
23432;SDS011;41331;45.412;10.992;2023-06-22T00:54:56;18.55;;;8.50;;
23432;SDS011;41331;45.412;10.992;2023-06-22T00:57:24;17.10;;;8.23;;
23432;SDS011;41331;45.412;10.992;2023-06-22T00:59:55;20.80;;;8.43;;
23432;SDS011;41331;45.412;10.992;2023-06-22T01:02:23;22.83;;;8.63;;
23432;SDS011;41331;45.412;10.992;2023-06-22T01:04:51;20.23;;;8.30;;
23432;SDS011;41331;45.412;10.992;2023-06-22T01:12:59;14.30;;;7.10;;
23432;SDS011;41331;45.412;10.992;2023-06-22T01:15:33;19.15;;;8.57;;
23432;SDS011;41331;45.412;10.992;2023-06-22T01:18:04;20.48;;;8.07;;
23432;SDS011;41331;45.412;10.992;2023-06-22T01:20:33;20.52;;;8.35;;
23432;SDS011;41331;45.412;10.992;2023-06-22T01:23:16;22.20;;;8.20;;
23432;SDS011;41331;45.412;10.992;2023-06-22T01:28:49;18.20;;;7.40;;
23432;SDS011;41331;45.412;10.992;2023-06-22T01:31:19;19.55;;;8.25;;
23432;SDS011;41331;45.412;10.992;2023-06-22T01:33:54;24.67;;;7.45;;
23432;SDS011;41331;45.412;10.992;2023-06-22T01:36:26;14.90;;;6.82;;
23432;SDS011;41331;45.412;10.992;2023-06-22T01:38:54;18.42;;;7.05;;
23432;SDS011;41331;45.412;10.992;2023-06-22T01:41:28;18.25;;;7.65;;
23432;SDS011;41331;45.412;10.992;2023-06-22T01:43:56;12.10;;;6.45;;
23432;SDS011;41331;45.412;10.992;2023-06-22T01:46:25;17.55;;;7.13;;
23432;SDS011;41331;45.412;10.992;2023-06-22T01:48:53;15.02;;;6.90;;
23432;SDS011;41331;45.412;10.992;2023-06-22T01:51:22;17.17;;;7.50;;
23432;SDS011;41331;45.412;10.992;2023-06-22T01:53:49;15.05;;;6.88;;
23432;SDS011;41331;45.412;10.992;2023-06-22T01:56:18;18.25;;;6.97;;
23432;SDS011;41331;45.412;10.992;2023-06-22T01:58:48;14.20;;;6.50;;
23432;SDS011;41331;45.412;10.992;2023-06-22T02:01:25;15.65;;;7.30;;
23432;SDS011;41331;45.412;10.992;2023-06-22T02:04:08;15.18;;;7.45;;
23432;SDS011;41331;45.412;10.992;2023-06-22T02:06:42;14.50;;;7.18;;
23432;SDS011;41331;45.412;10.992;2023-06-22T02:09:14;13.02;;;6.13;;
23432;SDS011;41331;45.412;10.992;2023-06-22T02:11:44;13.32;;;6.82;;
23432;SDS011;41331;45.412;10.992;2023-06-22T02:14:14;15.57;;;6.45;;
23432;SDS011;41331;45.412;10.992;2023-06-22T02:16:45;16.05;;;6.60;;
23432;SDS011;41331;45.412;10.992;2023-06-22T02:19:13;14.38;;;6.38;;
23432;SDS011;41331;45.412;10.992;2023-06-22T02:21:42;14.55;;;6.65;;
23432;SDS011;41331;45.412;10.992;2023-06-22T02:24:10;11.30;;;6.78;;
23432;SDS011;41331;45.412;10.992;2023-06-22T02:26:38;20.63;;;6.50;;
23432;SDS011;41331;45.412;10.992;2023-06-22T02:29:06;18.45;;;6.88;;
23432;SDS011;41331;45.412;10.992;2023-06-22T02:31:34;14.77;;;6.78;;
23432;SDS011;41331;45.412;10.992;2023-06-22T02:34:01;18.88;;;6.90;;
23432;SDS011;41331;45.412;10.992;2023-06-22T02:36:29;20.25;;;7.30;;
23432;SDS011;41331;45.412;10.992;2023-06-22T02:39:00;14.02;;;6.20;;
23432;SDS011;41331;45.412;10.992;2023-06-22T02:41:30;20.17;;;7.45;;
23432;SDS011;41331;45.412;10.992;2023-06-22T02:43:57;14.20;;;6.50;;
23432;SDS011;41331;45.412;10.992;2023-06-22T02:46:25;19.20;;;7.50;;
23432;SDS011;41331;45.412;10.992;2023-06-22T02:48:52;14.30;;;7.07;;
23432;SDS011;41331;45.412;10.992;2023-06-22T02:51:20;15.32;;;7.25;;
23432;SDS011;41331;45.412;10.992;2023-06-22T02:53:47;17.63;;;7.55;;
23432;SDS011;41331;45.412;10.992;2023-06-22T02:56:16;14.10;;;7.25;;
23432;SDS011;41331;45.412;10.992;2023-06-22T02:58:44;20.50;;;7.07;;
23432;SDS011;41331;45.412;10.992;2023-06-22T03:01:12;12.75;;;7.03;;
23432;SDS011;41331;45.412;10.992;2023-06-22T03:03:44;14.98;;;7.10;;
23432;SDS011;41331;45.412;10.992;2023-06-22T03:06:12;13.60;;;7.78;;
23432;SDS011;41331;45.412;10.992;2023-06-22T03:08:41;14.55;;;7.43;;
23432;SDS011;41331;45.412;10.992;2023-06-22T03:11:09;14.02;;;6.63;;
23432;SDS011;41331;45.412;10.992;2023-06-22T03:13:36;15.05;;;6.95;;
23432;SDS011;41331;45.412;10.992;2023-06-22T03:16:05;17.75;;;7.32;;
23432;SDS011;41331;45.412;10.992;2023-06-22T03:18:33;10.90;;;6.53;;
23432;SDS011;41331;45.412;10.992;2023-06-22T03:21:00;16.23;;;7.55;;
23432;SDS011;41331;45.412;10.992;2023-06-22T03:23:31;14.05;;;6.78;;
23432;SDS011;41331;45.412;10.992;2023-06-22T03:25:58;16.73;;;7.75;;
23432;SDS011;41331;45.412;10.992;2023-06-22T03:28:25;18.75;;;7.65;;
23432;SDS011;41331;45.412;10.992;2023-06-22T03:30:53;16.63;;;7.53;;
23432;SDS011;41331;45.412;10.992;2023-06-22T03:33:20;13.60;;;7.05;;
23432;SDS011;41331;45.412;10.992;2023-06-22T03:35:49;12.60;;;7.50;;
23432;SDS011;41331;45.412;10.992;2023-06-22T03:38:17;15.27;;;6.70;;
23432;SDS011;41331;45.412;10.992;2023-06-22T03:40:44;16.85;;;7.63;;
23432;SDS011;41331;45.412;10.992;2023-06-22T03:43:12;13.27;;;7.72;;
23432;SDS011;41331;45.412;10.992;2023-06-22T03:45:40;16.05;;;8.52;;
23432;SDS011;41331;45.412;10.992;2023-06-22T03:48:07;14.13;;;7.72;;
23432;SDS011;41331;45.412;10.992;2023-06-22T03:50:35;16.17;;;7.97;;
23432;SDS011;41331;45.412;10.992;2023-06-22T03:53:02;17.73;;;7.35;;
23432;SDS011;41331;45.412;10.992;2023-06-22T03:55:30;18.13;;;7.88;;
23432;SDS011;41331;45.412;10.992;2023-06-22T03:57:57;16.02;;;7.00;;
23432;SDS011;41331;45.412;10.992;2023-06-22T04:00:25;14.65;;;6.95;;
23432;SDS011;41331;45.412;10.992;2023-06-22T04:02:53;16.48;;;7.70;;
23432;SDS011;41331;45.412;10.992;2023-06-22T04:05:20;17.63;;;7.70;;
23432;SDS011;41331;45.412;10.992;2023-06-22T04:07:48;16.10;;;7.38;;
23432;SDS011;41331;45.412;10.992;2023-06-22T04:10:15;14.38;;;6.78;;
23432;SDS011;41331;45.412;10.992;2023-06-22T04:12:52;18.88;;;7.55;;
23432;SDS011;41331;45.412;10.992;2023-06-22T04:15:21;17.27;;;7.53;;
23432;SDS011;41331;45.412;10.992;2023-06-22T04:17:48;11.15;;;6.80;;
23432;SDS011;41331;45.412;10.992;2023-06-22T04:20:15;18.88;;;8.20;;
23432;SDS011;41331;45.412;10.992;2023-06-22T04:22:43;14.13;;;8.10;;
23432;SDS011;41331;45.412;10.992;2023-06-22T04:25:10;13.55;;;7.25;;
23432;SDS011;41331;45.412;10.992;2023-06-22T04:27:37;17.05;;;8.23;;
23432;SDS011;41331;45.412;10.992;2023-06-22T04:30:07;15.93;;;7.70;;
23432;SDS011;41331;45.412;10.992;2023-06-22T04:32:35;13.40;;;7.60;;
23432;SDS011;41331;45.412;10.992;2023-06-22T04:35:06;21.92;;;7.88;;
23432;SDS011;41331;45.412;10.992;2023-06-22T04:37:34;14.75;;;7.63;;
23432;SDS011;41331;45.412;10.992;2023-06-22T04:40:02;14.70;;;7.80;;
23432;SDS011;41331;45.412;10.992;2023-06-22T04:42:33;17.15;;;7.65;;
23432;SDS011;41331;45.412;10.992;2023-06-22T04:45:01;14.55;;;7.88;;
23432;SDS011;41331;45.412;10.992;2023-06-22T04:47:29;16.02;;;8.23;;
23432;SDS011;41331;45.412;10.992;2023-06-22T04:49:56;24.08;;;11.45;;
23432;SDS011;41331;45.412;10.992;2023-06-22T04:52:23;25.42;;;13.15;;
23432;SDS011;41331;45.412;10.992;2023-06-22T04:54:51;26.55;;;14.45;;
23432;SDS011;41331;45.412;10.992;2023-06-22T04:57:22;25.85;;;14.02;;
23432;SDS011;41331;45.412;10.992;2023-06-22T05:00:01;27.13;;;11.90;;
23432;SDS011;41331;45.412;10.992;2023-06-22T05:02:39;22.75;;;10.90;;
23432;SDS011;41331;45.412;10.992;2023-06-22T05:05:07;20.40;;;10.40;;
23432;SDS011;41331;45.412;10.992;2023-06-22T05:07:35;16.92;;;9.48;;
23432;SDS011;41331;45.412;10.992;2023-06-22T05:10:03;16.40;;;8.77;;
23432;SDS011;41331;45.412;10.992;2023-06-22T05:12:32;21.77;;;9.23;;
23432;SDS011;41331;45.412;10.992;2023-06-22T05:14:59;17.35;;;9.25;;
23432;SDS011;41331;45.412;10.992;2023-06-22T05:17:27;18.38;;;9.32;;
23432;SDS011;41331;45.412;10.992;2023-06-22T05:19:54;15.57;;;8.93;;
23432;SDS011;41331;45.412;10.992;2023-06-22T05:22:22;21.08;;;8.20;;
23432;SDS011;41331;45.412;10.992;2023-06-22T05:24:49;18.05;;;8.95;;
23432;SDS011;41331;45.412;10.992;2023-06-22T05:27:16;15.07;;;8.65;;
23432;SDS011;41331;45.412;10.992;2023-06-22T05:29:44;19.35;;;9.30;;
23432;SDS011;41331;45.412;10.992;2023-06-22T05:32:11;18.30;;;9.15;;
23432;SDS011;41331;45.412;10.992;2023-06-22T05:34:39;26.05;;;9.88;;
23432;SDS011;41331;45.412;10.992;2023-06-22T05:37:06;21.45;;;10.23;;
23432;SDS011;41331;45.412;10.992;2023-06-22T05:39:33;15.85;;;9.52;;
23432;SDS011;41331;45.412;10.992;2023-06-22T05:42:01;23.05;;;9.43;;
23432;SDS011;41331;45.412;10.992;2023-06-22T05:44:28;17.95;;;10.25;;
23432;SDS011;41331;45.412;10.992;2023-06-22T05:46:55;22.42;;;9.52;;
23432;SDS011;41331;45.412;10.992;2023-06-22T05:49:23;17.58;;;9.65;;
23432;SDS011;41331;45.412;10.992;2023-06-22T05:51:51;21.55;;;9.52;;
23432;SDS011;41331;45.412;10.992;2023-06-22T05:54:19;18.95;;;9.18;;
23432;SDS011;41331;45.412;10.992;2023-06-22T05:56:46;22.20;;;8.60;;
23432;SDS011;41331;45.412;10.992;2023-06-22T05:59:13;19.23;;;8.50;;
23432;SDS011;41331;45.412;10.992;2023-06-22T06:01:41;18.40;;;8.27;;
23432;SDS011;41331;45.412;10.992;2023-06-22T06:04:08;18.55;;;7.90;;
23432;SDS011;41331;45.412;10.992;2023-06-22T06:06:36;19.55;;;8.13;;
23432;SDS011;41331;45.412;10.992;2023-06-22T06:09:04;17.25;;;7.85;;
23432;SDS011;41331;45.412;10.992;2023-06-22T06:11:32;16.20;;;8.50;;
23432;SDS011;41331;45.412;10.992;2023-06-22T06:13:59;20.35;;;8.40;;
23432;SDS011;41331;45.412;10.992;2023-06-22T06:16:26;24.13;;;8.13;;
23432;SDS011;41331;45.412;10.992;2023-06-22T06:18:54;13.52;;;7.68;;
23432;SDS011;41331;45.412;10.992;2023-06-22T06:21:23;19.30;;;8.02;;
23432;SDS011;41331;45.412;10.992;2023-06-22T06:23:50;18.55;;;7.80;;
23432;SDS011;41331;45.412;10.992;2023-06-22T06:26:17;21.52;;;8.02;;
23432;SDS011;41331;45.412;10.992;2023-06-22T06:28:45;22.67;;;8.07;;
23432;SDS011;41331;45.412;10.992;2023-06-22T06:31:12;22.77;;;7.80;;
23432;SDS011;41331;45.412;10.992;2023-06-22T06:33:44;18.42;;;7.90;;
23432;SDS011;41331;45.412;10.992;2023-06-22T06:36:11;19.27;;;7.50;;
23432;SDS011;41331;45.412;10.992;2023-06-22T06:38:39;20.77;;;7.40;;
23432;SDS011;41331;45.412;10.992;2023-06-22T06:41:06;17.65;;;7.40;;
23432;SDS011;41331;45.412;10.992;2023-06-22T06:43:33;14.25;;;7.18;;
23432;SDS011;41331;45.412;10.992;2023-06-22T06:46:01;15.55;;;8.13;;
23432;SDS011;41331;45.412;10.992;2023-06-22T06:48:30;18.65;;;7.43;;
23432;SDS011;41331;45.412;10.992;2023-06-22T06:50:57;23.75;;;7.47;;
23432;SDS011;41331;45.412;10.992;2023-06-22T06:53:25;13.70;;;6.95;;
23432;SDS011;41331;45.412;10.992;2023-06-22T06:55:52;20.55;;;6.88;;
23432;SDS011;41331;45.412;10.992;2023-06-22T06:58:20;20.30;;;7.15;;
23432;SDS011;41331;45.412;10.992;2023-06-22T07:00:47;32.08;;;7.60;;
23432;SDS011;41331;45.412;10.992;2023-06-22T07:03:14;34.78;;;8.23;;
23432;SDS011;41331;45.412;10.992;2023-06-22T07:05:42;21.20;;;7.25;;
23432;SDS011;41331;45.412;10.992;2023-06-22T07:08:09;19.13;;;6.55;;
23432;SDS011;41331;45.412;10.992;2023-06-22T07:10:37;26.05;;;7.22;;
23432;SDS011;41331;45.412;10.992;2023-06-22T07:13:05;25.73;;;6.95;;
23432;SDS011;41331;45.412;10.992;2023-06-22T07:15:32;16.17;;;7.07;;
23432;SDS011;41331;45.412;10.992;2023-06-22T07:17:59;16.15;;;7.25;;
23432;SDS011;41331;45.412;10.992;2023-06-22T07:20:27;16.17;;;7.45;;
23432;SDS011;41331;45.412;10.992;2023-06-22T07:22:55;15.73;;;7.10;;
23432;SDS011;41331;45.412;10.992;2023-06-22T07:25:22;19.08;;;6.65;;
23432;SDS011;41331;45.412;10.992;2023-06-22T07:27:57;17.63;;;7.20;;
23432;SDS011;41331;45.412;10.992;2023-06-22T07:30:24;22.70;;;7.60;;
23432;SDS011;41331;45.412;10.992;2023-06-22T07:32:52;17.88;;;6.82;;
23432;SDS011;41331;45.412;10.992;2023-06-22T07:35:20;18.10;;;6.82;;
23432;SDS011;41331;45.412;10.992;2023-06-22T07:37:48;17.35;;;7.70;;
23432;SDS011;41331;45.412;10.992;2023-06-22T07:40:16;15.63;;;7.18;;
23432;SDS011;41331;45.412;10.992;2023-06-22T07:42:43;16.80;;;7.25;;
23432;SDS011;41331;45.412;10.992;2023-06-22T07:45:11;17.33;;;6.65;;
23432;SDS011;41331;45.412;10.992;2023-06-22T07:47:38;20.58;;;6.50;;
23432;SDS011;41331;45.412;10.992;2023-06-22T07:50:06;23.50;;;7.50;;
23432;SDS011;41331;45.412;10.992;2023-06-22T07:52:33;16.23;;;7.10;;
23432;SDS011;41331;45.412;10.992;2023-06-22T07:55:01;20.58;;;7.82;;
23432;SDS011;41331;45.412;10.992;2023-06-22T07:57:29;25.63;;;7.80;;
23432;SDS011;41331;45.412;10.992;2023-06-22T08:00:02;22.15;;;7.97;;
23432;SDS011;41331;45.412;10.992;2023-06-22T08:02:40;26.75;;;8.73;;
23432;SDS011;41331;45.412;10.992;2023-06-22T08:05:09;23.80;;;9.15;;
23432;SDS011;41331;45.412;10.992;2023-06-22T08:07:57;20.17;;;8.68;;
23432;SDS011;41331;45.412;10.992;2023-06-22T08:10:24;23.35;;;8.45;;
23432;SDS011;41331;45.412;10.992;2023-06-22T08:12:52;18.73;;;7.47;;
23432;SDS011;41331;45.412;10.992;2023-06-22T08:15:20;17.30;;;7.53;;
23432;SDS011;41331;45.412;10.992;2023-06-22T08:17:49;18.45;;;8.65;;
23432;SDS011;41331;45.412;10.992;2023-06-22T08:20:16;18.65;;;8.02;;
23432;SDS011;41331;45.412;10.992;2023-06-22T08:22:44;16.23;;;7.57;;
23432;SDS011;41331;45.412;10.992;2023-06-22T08:25:11;18.75;;;6.93;;
23432;SDS011;41331;45.412;10.992;2023-06-22T08:27:40;23.50;;;7.15;;
23432;SDS011;41331;45.412;10.992;2023-06-22T08:30:09;15.13;;;7.65;;
23432;SDS011;41331;45.412;10.992;2023-06-22T08:32:38;13.77;;;7.40;;
23432;SDS011;41331;45.412;10.992;2023-06-22T08:35:05;19.48;;;8.27;;
23432;SDS011;41331;45.412;10.992;2023-06-22T08:37:36;19.42;;;7.47;;
23432;SDS011;41331;45.412;10.992;2023-06-22T08:40:04;13.95;;;7.93;;
23432;SDS011;41331;45.412;10.992;2023-06-22T08:42:34;19.70;;;8.25;;
23432;SDS011;41331;45.412;10.992;2023-06-22T08:45:01;16.67;;;7.53;;
23432;SDS011;41331;45.412;10.992;2023-06-22T08:47:30;13.50;;;7.65;;
23432;SDS011;41331;45.412;10.992;2023-06-22T08:49:58;15.93;;;8.13;;
23432;SDS011;41331;45.412;10.992;2023-06-22T08:52:25;16.70;;;8.20;;
23432;SDS011;41331;45.412;10.992;2023-06-22T08:54:53;17.13;;;8.68;;
23432;SDS011;41331;45.412;10.992;2023-06-22T08:57:20;25.75;;;8.63;;
23432;SDS011;41331;45.412;10.992;2023-06-22T08:59:49;16.60;;;8.77;;
23432;SDS011;41331;45.412;10.992;2023-06-22T09:02:19;17.15;;;8.30;;
23432;SDS011;41331;45.412;10.992;2023-06-22T09:04:47;15.32;;;7.43;;
23432;SDS011;41331;45.412;10.992;2023-06-22T09:07:16;22.90;;;8.60;;
23432;SDS011;41331;45.412;10.992;2023-06-22T09:09:49;18.83;;;7.70;;
23432;SDS011;41331;45.412;10.992;2023-06-22T09:12:17;19.20;;;8.13;;
23432;SDS011;41331;45.412;10.992;2023-06-22T09:14:47;20.73;;;7.47;;
23432;SDS011;41331;45.412;10.992;2023-06-22T09:17:14;17.05;;;8.32;;
23432;SDS011;41331;45.412;10.992;2023-06-22T09:19:41;16.50;;;7.53;;
23432;SDS011;41331;45.412;10.992;2023-06-22T09:22:09;19.15;;;8.32;;
23432;SDS011;41331;45.412;10.992;2023-06-22T09:24:36;17.88;;;7.97;;
23432;SDS011;41331;45.412;10.992;2023-06-22T09:27:04;22.05;;;8.00;;
23432;SDS011;41331;45.412;10.992;2023-06-22T09:29:31;20.42;;;7.57;;
23432;SDS011;41331;45.412;10.992;2023-06-22T09:32:01;18.90;;;8.43;;
23432;SDS011;41331;45.412;10.992;2023-06-22T09:34:29;18.02;;;8.20;;
23432;SDS011;41331;45.412;10.992;2023-06-22T09:36:58;12.23;;;7.57;;
23432;SDS011;41331;45.412;10.992;2023-06-22T09:39:27;18.10;;;7.68;;
23432;SDS011;41331;45.412;10.992;2023-06-22T09:41:57;16.92;;;7.90;;
23432;SDS011;41331;45.412;10.992;2023-06-22T09:46:53;24.73;;;8.20;;
23432;SDS011;41331;45.412;10.992;2023-06-22T09:49:21;17.15;;;8.00;;
23432;SDS011;41331;45.412;10.992;2023-06-22T09:52:08;18.05;;;8.30;;
23432;SDS011;41331;45.412;10.992;2023-06-22T09:54:36;14.23;;;8.02;;
23432;SDS011;41331;45.412;10.992;2023-06-22T09:57:03;18.83;;;7.68;;
23432;SDS011;41331;45.412;10.992;2023-06-22T09:59:31;14.23;;;7.88;;
23432;SDS011;41331;45.412;10.992;2023-06-22T10:01:58;13.32;;;7.63;;
23432;SDS011;41331;45.412;10.992;2023-06-22T10:04:25;17.70;;;8.68;;
23432;SDS011;41331;45.412;10.992;2023-06-22T10:06:54;15.90;;;7.47;;
23432;SDS011;41331;45.412;10.992;2023-06-22T10:09:21;17.05;;;7.70;;
23432;SDS011;41331;45.412;10.992;2023-06-22T10:11:48;18.10;;;8.38;;
23432;SDS011;41331;45.412;10.992;2023-06-22T10:14:16;19.23;;;8.05;;
23432;SDS011;41331;45.412;10.992;2023-06-22T10:16:44;12.45;;;7.20;;
23432;SDS011;41331;45.412;10.992;2023-06-22T10:19:11;18.60;;;7.72;;
23432;SDS011;41331;45.412;10.992;2023-06-22T10:21:39;18.05;;;7.43;;
23432;SDS011;41331;45.412;10.992;2023-06-22T10:24:06;15.98;;;7.45;;
23432;SDS011;41331;45.412;10.992;2023-06-22T10:26:33;14.45;;;7.35;;
23432;SDS011;41331;45.412;10.992;2023-06-22T10:29:02;15.40;;;7.03;;
